createdAt,value
2018-02-20T00:00:31.086Z,33.90
2018-02-20T00:01:31.061Z,33.10
2018-02-20T00:02:31.043Z,34.80
2018-02-20T00:03:31.019Z,34.70
2018-02-20T00:04:31.003Z,33.40
2018-02-20T00:05:30.972Z,34.60
2018-02-20T00:06:30.953Z,33.30
2018-02-20T00:07:30.928Z,34.80
2018-02-20T00:08:30.905Z,34.40
2018-02-20T00:09:30.883Z,34.80
2018-02-20T00:10:30.860Z,34.60
2018-02-20T00:11:30.844Z,34.70
2018-02-20T00:12:30.819Z,33.90
2018-02-20T00:13:30.796Z,33.70
2018-02-20T00:14:30.773Z,34.10
2018-02-20T00:15:30.749Z,34.40
2018-02-20T00:16:30.725Z,33.30
2018-02-20T00:17:30.702Z,34.60
2018-02-20T00:18:30.683Z,35.20
2018-02-20T00:19:30.661Z,34.30
2018-02-20T00:20:30.641Z,35.30
2018-02-20T00:21:30.613Z,35.20
2018-02-20T00:22:30.594Z,35.10
2018-02-20T00:23:30.571Z,34.00
2018-02-20T00:24:30.547Z,34.90
2018-02-20T00:25:30.526Z,35.40
2018-02-20T00:26:30.514Z,34.80
2018-02-20T00:27:30.484Z,36.50
2018-02-20T00:28:30.462Z,35.10
2018-02-20T00:29:30.443Z,35.00
2018-02-20T00:30:30.415Z,36.70
2018-02-20T00:31:30.391Z,35.80
2018-02-20T00:32:30.372Z,34.70
2018-02-20T00:33:30.345Z,35.20
2018-02-20T00:34:30.472Z,35.90
2018-02-20T00:35:30.303Z,37.40
2018-02-20T00:36:30.290Z,36.00
2018-02-20T00:37:30.608Z,35.70
2018-02-20T00:38:30.367Z,35.60
2018-02-20T00:39:30.216Z,36.80
2018-02-20T00:40:30.197Z,35.80
2018-02-20T00:41:30.168Z,38.10
2018-02-20T00:42:30.153Z,36.50
2018-02-20T00:43:30.122Z,37.60
2018-02-20T00:44:30.114Z,36.60
2018-02-20T00:45:30.080Z,37.70
2018-02-20T00:46:30.063Z,36.50
2018-02-20T00:47:30.036Z,35.90
2018-02-20T00:48:30.011Z,37.40
2018-02-20T00:49:29.991Z,37.60
2018-02-20T00:50:29.970Z,37.50
2018-02-20T00:51:29.943Z,38.30
2018-02-20T00:52:29.919Z,39.20
2018-02-20T00:53:29.897Z,37.60
2018-02-20T00:54:29.882Z,39.30
2018-02-20T00:55:29.858Z,38.50
2018-02-20T00:56:29.832Z,38.80
2018-02-20T00:57:29.810Z,38.00
2018-02-20T00:58:29.785Z,39.20
2018-02-20T00:59:29.762Z,38.20
2018-02-20T01:00:29.742Z,38.60
2018-02-20T01:01:29.717Z,39.20
2018-02-20T01:02:29.702Z,39.70
2018-02-20T01:03:29.674Z,39.30
2018-02-20T01:04:29.653Z,39.30
2018-02-20T01:05:29.631Z,41.50
2018-02-20T01:06:29.610Z,41.00
2018-02-20T01:07:29.587Z,40.80
2018-02-20T01:08:29.561Z,39.90
2018-02-20T01:09:29.543Z,41.20
2018-02-20T01:10:29.524Z,41.80
2018-02-20T01:11:29.495Z,42.10
2018-02-20T01:12:29.476Z,39.30
2018-02-20T01:13:29.461Z,40.50
2018-02-20T01:14:29.429Z,40.00
2018-02-20T01:15:29.417Z,39.90
2018-02-20T01:16:29.386Z,41.10
2018-02-20T01:17:29.364Z,41.50
2018-02-20T01:18:29.348Z,40.90
2018-02-20T01:19:29.319Z,42.00
2018-02-20T01:20:29.293Z,41.80
2018-02-20T01:21:29.272Z,42.90
2018-02-20T01:22:29.253Z,42.50
2018-02-20T01:23:29.233Z,41.30
2018-02-20T01:24:29.207Z,42.60
2018-02-20T01:25:29.437Z,43.90
2018-02-20T01:26:29.159Z,41.90
2018-02-20T01:27:29.138Z,43.10
2018-02-20T01:28:29.123Z,43.70
2018-02-20T01:29:29.093Z,42.90
2018-02-20T01:30:29.073Z,44.60
2018-02-20T01:31:29.047Z,44.30
2018-02-20T01:32:29.028Z,43.70
2018-02-20T01:33:29.005Z,43.80
2018-02-20T01:34:28.983Z,42.70
2018-02-20T01:35:28.960Z,43.40
2018-02-20T01:36:28.936Z,44.10
2018-02-20T01:37:28.915Z,44.60
2018-02-20T01:38:28.895Z,44.90
2018-02-20T01:39:28.866Z,45.50
2018-02-20T01:40:28.848Z,44.70
2018-02-20T01:41:28.827Z,45.90
2018-02-20T01:42:28.805Z,46.00
2018-02-20T01:43:28.778Z,45.70
2018-02-20T01:44:28.764Z,46.40
2018-02-20T01:45:28.735Z,46.20
2018-02-20T01:46:28.713Z,46.20
2018-02-20T01:47:28.691Z,45.70
2018-02-20T01:48:28.674Z,46.00
2018-02-20T01:49:28.646Z,46.90
2018-02-20T01:50:28.623Z,46.30
2018-02-20T01:51:28.607Z,45.30
2018-02-20T01:52:28.579Z,44.90
2018-02-20T01:53:28.556Z,43.70
2018-02-20T01:54:28.534Z,45.90
2018-02-20T01:55:28.513Z,43.90
2018-02-20T01:56:28.493Z,45.90
2018-02-20T01:57:28.467Z,44.70
2018-02-20T01:58:28.443Z,44.30
2018-02-20T01:59:28.474Z,44.70
2018-02-20T02:00:28.408Z,45.60
2018-02-20T02:01:28.382Z,46.60
2018-02-20T02:02:28.356Z,44.80
2018-02-20T02:03:28.381Z,46.50
2018-02-20T02:04:28.314Z,46.10
2018-02-20T02:05:28.292Z,45.90
2018-02-20T02:06:28.263Z,45.30
2018-02-20T02:07:28.343Z,45.90
2018-02-20T02:08:28.325Z,46.40
2018-02-20T02:09:28.198Z,43.80
2018-02-20T02:10:28.176Z,46.40
2018-02-20T02:11:28.154Z,44.90
2018-02-20T02:12:28.127Z,46.00
2018-02-20T02:13:28.205Z,47.20
2018-02-20T02:14:28.084Z,45.60
2018-02-20T02:15:28.212Z,46.60
2018-02-20T02:16:28.044Z,44.90
2018-02-20T02:17:28.024Z,46.70
2018-02-20T02:18:28.000Z,46.90
2018-02-20T02:19:27.996Z,45.30
2018-02-20T02:20:27.954Z,46.60
2018-02-20T02:21:27.930Z,47.50
2018-02-20T02:22:27.905Z,46.00
2018-02-20T02:23:28.036Z,45.60
2018-02-20T02:24:27.859Z,48.10
2018-02-20T02:25:27.838Z,48.40
2018-02-20T02:26:27.818Z,47.40
2018-02-20T02:27:27.936Z,45.30
2018-02-20T02:28:27.770Z,48.20
2018-02-20T02:29:27.754Z,46.90
2018-02-20T02:30:27.729Z,45.70
2018-02-20T02:31:27.707Z,47.00
2018-02-20T02:32:27.684Z,46.90
2018-02-20T02:33:27.661Z,47.50
2018-02-20T02:34:27.643Z,46.70
2018-02-20T02:35:27.625Z,47.50
2018-02-20T02:36:27.621Z,48.00
2018-02-20T02:37:27.574Z,46.40
2018-02-20T02:38:27.546Z,47.80
2018-02-20T02:39:27.522Z,48.10
2018-02-20T02:40:27.503Z,48.30
2018-02-20T02:41:27.484Z,46.80
2018-02-20T02:42:27.460Z,48.00
2018-02-20T02:43:27.433Z,46.50
2018-02-20T02:44:27.409Z,46.70
2018-02-20T02:45:27.392Z,46.90
2018-02-20T02:46:27.369Z,45.20
2018-02-20T02:47:27.350Z,46.80
2018-02-20T02:48:27.321Z,48.50
2018-02-20T02:49:27.301Z,48.30
2018-02-20T02:50:27.278Z,48.00
2018-02-20T02:51:27.257Z,49.50
2018-02-20T02:52:27.228Z,47.10
2018-02-20T02:53:27.212Z,47.50
2018-02-20T02:54:27.186Z,47.80
2018-02-20T02:55:27.166Z,47.80
2018-02-20T02:56:27.139Z,49.60
2018-02-20T02:57:27.118Z,49.70
2018-02-20T02:58:27.102Z,48.00
2018-02-20T02:59:27.072Z,48.70
2018-02-20T03:00:27.050Z,48.10
2018-02-20T03:01:27.030Z,49.80
2018-02-20T03:02:27.008Z,48.20
2018-02-20T03:03:27.234Z,49.90
2018-02-20T03:04:26.963Z,49.10
2018-02-20T03:05:26.937Z,48.10
2018-02-20T03:06:26.916Z,49.20
2018-02-20T03:07:26.893Z,48.50
2018-02-20T03:08:26.872Z,48.20
2018-02-20T03:09:26.848Z,50.00
2018-02-20T03:10:26.834Z,49.70
2018-02-20T03:11:26.803Z,48.70
2018-02-20T03:12:26.781Z,48.80
2018-02-20T03:13:26.765Z,48.50
2018-02-20T03:14:27.235Z,49.90
2018-02-20T03:15:26.716Z,48.90
2018-02-20T03:16:26.688Z,50.10
2018-02-20T03:17:26.677Z,49.80
2018-02-20T03:18:26.646Z,50.00
2018-02-20T03:19:26.620Z,50.50
2018-02-20T03:20:26.600Z,50.10
2018-02-20T03:21:26.579Z,49.20
2018-02-20T03:22:26.561Z,49.60
2018-02-20T03:23:26.533Z,49.70
2018-02-20T03:24:26.512Z,50.50
2018-02-20T03:25:26.490Z,49.00
2018-02-20T03:26:26.465Z,49.90
2018-02-20T03:27:26.442Z,50.30
2018-02-20T03:28:26.424Z,51.10
2018-02-20T03:29:26.403Z,49.80
2018-02-20T03:30:26.377Z,51.00
2018-02-20T03:31:26.355Z,51.00
2018-02-20T03:32:26.333Z,51.80
2018-02-20T03:33:26.308Z,50.90
2018-02-20T03:34:26.295Z,49.70
2018-02-20T03:35:26.266Z,51.20
2018-02-20T03:36:26.243Z,51.90
2018-02-20T03:37:26.220Z,52.10
2018-02-20T03:38:26.203Z,51.40
2018-02-20T03:39:26.176Z,49.60
2018-02-20T03:40:26.156Z,50.70
2018-02-20T03:41:26.134Z,50.60
2018-02-20T03:42:26.109Z,51.60
2018-02-20T03:43:26.093Z,51.70
2018-02-20T03:44:26.113Z,51.40
2018-02-20T03:45:26.041Z,51.50
2018-02-20T03:46:26.019Z,51.90
2018-02-20T03:47:25.993Z,51.70
2018-02-20T03:48:26.025Z,51.90
2018-02-20T03:49:26.053Z,51.90
2018-02-20T03:50:25.932Z,51.60
2018-02-20T03:51:25.906Z,52.80
2018-02-20T03:52:25.884Z,52.40
2018-02-20T03:53:25.862Z,51.80
2018-02-20T03:54:25.942Z,49.60
2018-02-20T03:55:25.814Z,51.40
2018-02-20T03:56:25.792Z,51.70
2018-02-20T03:57:25.772Z,49.90
2018-02-20T03:58:25.853Z,52.40
2018-02-20T03:59:25.729Z,53.00
2018-02-20T04:00:25.803Z,51.90
2018-02-20T04:01:25.680Z,55.50
2018-02-20T04:02:25.659Z,53.60
2018-02-20T04:03:25.639Z,52.10
2018-02-20T04:04:25.612Z,54.30
2018-02-20T04:05:25.592Z,52.40
2018-02-20T04:06:25.571Z,52.60
2018-02-20T04:07:25.546Z,52.40
2018-02-20T04:08:25.522Z,51.40
2018-02-20T04:09:25.807Z,52.40
2018-02-20T04:10:25.481Z,53.20
2018-02-20T04:11:25.454Z,51.70
2018-02-20T04:12:25.432Z,51.80
2018-02-20T04:13:25.412Z,51.40
2018-02-20T04:14:25.390Z,52.40
2018-02-20T04:15:25.373Z,53.30
2018-02-20T04:16:25.343Z,52.90
2018-02-20T04:17:25.324Z,51.00
2018-02-20T04:18:25.299Z,51.70
2018-02-20T04:19:25.275Z,51.30
2018-02-20T04:20:25.251Z,52.00
2018-02-20T04:21:25.231Z,52.00
2018-02-20T04:22:25.363Z,53.30
2018-02-20T04:23:25.237Z,52.80
2018-02-20T04:24:25.412Z,52.40
2018-02-20T04:25:25.140Z,52.50
2018-02-20T04:26:25.127Z,52.80
2018-02-20T04:27:25.092Z,50.50
2018-02-20T04:28:25.078Z,52.80
2018-02-20T04:29:25.301Z,52.70
2018-02-20T04:30:25.027Z,51.80
2018-02-20T04:31:25.064Z,52.50
2018-02-20T04:32:24.983Z,51.90
2018-02-20T04:33:24.964Z,53.10
2018-02-20T04:34:25.188Z,53.00
2018-02-20T04:35:24.915Z,52.10
2018-02-20T04:36:24.892Z,52.20
2018-02-20T04:37:24.871Z,51.60
2018-02-20T04:38:24.851Z,52.80
2018-02-20T04:39:24.822Z,52.50
2018-02-20T04:40:24.806Z,50.70
2018-02-20T04:41:24.776Z,53.00
2018-02-20T04:42:24.756Z,51.90
2018-02-20T04:43:24.735Z,51.30
2018-02-20T04:44:24.718Z,51.40
2018-02-20T04:45:24.687Z,51.50
2018-02-20T04:46:24.665Z,51.70
2018-02-20T04:47:24.640Z,51.90
2018-02-20T04:48:24.623Z,53.80
2018-02-20T04:49:24.596Z,54.10
2018-02-20T04:50:24.573Z,52.30
2018-02-20T04:51:24.552Z,51.40
2018-02-20T04:52:24.529Z,51.00
2018-02-20T04:53:24.505Z,51.90
2018-02-20T04:54:50.355Z,51.30
2018-02-20T04:55:50.065Z,54.10
2018-02-20T04:56:50.041Z,53.40
2018-02-20T04:57:50.019Z,53.10
2018-02-20T04:58:50.003Z,54.40
2018-02-20T04:59:49.975Z,52.20
2018-02-20T05:00:49.955Z,53.30
2018-02-20T05:01:49.971Z,52.40
2018-02-20T05:02:49.915Z,52.90
2018-02-20T05:03:49.884Z,52.50
2018-02-20T05:04:49.859Z,53.40
2018-02-20T05:05:49.841Z,53.00
2018-02-20T05:06:49.814Z,54.70
2018-02-20T05:07:49.794Z,52.50
2018-02-20T05:08:49.777Z,54.30
2018-02-20T05:09:49.853Z,53.90
2018-02-20T05:10:49.729Z,53.20
2018-02-20T05:11:49.704Z,51.90
2018-02-20T05:12:49.695Z,53.30
2018-02-20T05:13:49.661Z,53.80
2018-02-20T05:14:49.652Z,53.20
2018-02-20T05:15:49.615Z,53.20
2018-02-20T05:16:49.587Z,52.50
2018-02-20T05:17:49.569Z,53.40
2018-02-20T05:18:49.542Z,54.50
2018-02-20T05:19:49.519Z,52.60
2018-02-20T05:20:49.498Z,53.50
2018-02-20T05:21:49.474Z,53.60
2018-02-20T05:22:49.454Z,53.90
2018-02-20T05:23:49.434Z,54.20
2018-02-20T05:24:49.408Z,52.30
2018-02-20T05:25:49.383Z,52.20
2018-02-20T05:26:49.365Z,53.00
2018-02-20T05:27:49.339Z,54.40
2018-02-20T05:28:49.420Z,52.50
2018-02-20T05:29:49.304Z,53.00
2018-02-20T05:30:49.269Z,53.30
2018-02-20T05:31:49.249Z,53.00
2018-02-20T05:32:49.225Z,52.30
2018-02-20T05:33:49.204Z,54.00
2018-02-20T05:34:49.185Z,53.90
2018-02-20T05:35:49.161Z,54.30
2018-02-20T05:36:49.134Z,52.40
2018-02-20T05:37:49.113Z,52.80
2018-02-20T05:38:49.090Z,52.70
2018-02-20T05:39:49.068Z,54.00
2018-02-20T05:40:49.044Z,53.80
2018-02-20T05:41:49.023Z,53.20
2018-02-20T05:42:49.002Z,52.20
2018-02-20T05:43:49.023Z,51.90
2018-02-20T05:44:48.952Z,52.30
2018-02-20T05:45:48.935Z,53.90
2018-02-20T05:46:48.909Z,52.30
2018-02-20T05:47:48.885Z,53.50
2018-02-20T05:48:48.861Z,52.30
2018-02-20T05:49:48.844Z,51.90
2018-02-20T05:50:48.820Z,53.20
2018-02-20T05:51:48.796Z,52.10
2018-02-20T05:52:48.775Z,53.90
2018-02-20T05:53:48.752Z,53.50
2018-02-20T05:54:48.733Z,53.50
2018-02-20T05:55:48.705Z,54.80
2018-02-20T05:56:48.686Z,54.20
2018-02-20T05:57:48.702Z,54.20
2018-02-20T05:58:48.639Z,54.40
2018-02-20T05:59:48.616Z,54.20
2018-02-20T06:00:48.605Z,54.10
2018-02-20T06:01:48.574Z,57.10
2018-02-20T06:02:48.551Z,53.20
2018-02-20T06:03:48.525Z,53.50
2018-02-20T06:04:48.511Z,54.40
2018-02-20T06:05:48.732Z,53.90
2018-02-20T06:06:48.463Z,53.40
2018-02-20T06:07:48.437Z,52.20
2018-02-20T06:08:48.409Z,55.40
2018-02-20T06:09:48.386Z,53.80
2018-02-20T06:10:48.366Z,54.80
2018-02-20T06:11:48.342Z,54.60
2018-02-20T06:12:48.317Z,53.50
2018-02-20T06:13:48.296Z,53.50
2018-02-20T06:14:48.275Z,54.20
2018-02-20T06:15:48.251Z,52.60
2018-02-20T06:16:48.229Z,53.70
2018-02-20T06:17:48.211Z,54.50
2018-02-20T06:18:48.186Z,55.40
2018-02-20T06:19:48.161Z,54.10
2018-02-20T06:20:48.137Z,55.10
2018-02-20T06:21:48.121Z,55.00
2018-02-20T06:22:48.094Z,54.50
2018-02-20T06:23:48.078Z,54.20
2018-02-20T06:24:48.049Z,53.80
2018-02-20T06:25:48.025Z,54.60
2018-02-20T06:26:48.002Z,53.10
2018-02-20T06:27:47.979Z,53.90
2018-02-20T06:28:47.962Z,53.70
2018-02-20T06:29:47.936Z,53.00
2018-02-20T06:30:48.212Z,54.70
2018-02-20T06:31:47.892Z,56.00
2018-02-20T06:32:47.868Z,53.20
2018-02-20T06:33:47.845Z,55.40
2018-02-20T06:34:47.825Z,54.60
2018-02-20T06:35:47.799Z,55.20
2018-02-20T06:36:47.777Z,55.50
2018-02-20T06:37:47.755Z,53.40
2018-02-20T06:38:47.759Z,55.10
2018-02-20T06:39:47.707Z,53.90
2018-02-20T06:40:47.686Z,53.90
2018-02-20T06:41:47.666Z,54.20
2018-02-20T06:42:47.647Z,53.50
2018-02-20T06:43:47.619Z,53.70
2018-02-20T06:44:47.596Z,54.40
2018-02-20T06:45:47.571Z,53.70
2018-02-20T06:46:47.552Z,55.20
2018-02-20T06:47:47.527Z,53.60
2018-02-20T06:48:47.505Z,55.70
2018-02-20T06:49:47.482Z,54.30
2018-02-20T06:50:47.463Z,52.80
2018-02-20T06:51:47.454Z,53.60
2018-02-20T06:52:47.416Z,54.40
2018-02-20T06:53:47.401Z,53.90
2018-02-20T06:54:47.376Z,54.50
2018-02-20T06:55:47.346Z,53.60
2018-02-20T06:56:47.584Z,54.20
2018-02-20T06:57:47.305Z,52.90
2018-02-20T06:58:47.281Z,54.90
2018-02-20T06:59:47.259Z,54.70
2018-02-20T07:00:47.233Z,54.60
2018-02-20T07:01:47.463Z,54.20
2018-02-20T07:02:47.240Z,55.60
2018-02-20T07:03:47.167Z,54.10
2018-02-20T07:04:47.146Z,54.30
2018-02-20T07:05:47.130Z,54.10
2018-02-20T07:06:47.355Z,53.80
2018-02-20T07:07:47.076Z,54.40
2018-02-20T07:08:47.054Z,56.10
2018-02-20T07:09:47.037Z,53.70
2018-02-20T07:10:47.073Z,54.90
2018-02-20T07:11:46.987Z,54.60
2018-02-20T07:12:46.964Z,53.00
2018-02-20T07:13:46.940Z,53.70
2018-02-20T07:14:46.928Z,53.40
2018-02-20T07:15:46.899Z,53.60
2018-02-20T07:16:46.873Z,54.00
2018-02-20T07:17:47.101Z,54.40
2018-02-20T07:18:46.831Z,55.30
2018-02-20T07:19:46.809Z,53.50
2018-02-20T07:20:46.786Z,52.70
2018-02-20T07:21:46.762Z,53.20
2018-02-20T07:22:46.742Z,53.60
2018-02-20T07:23:46.718Z,54.20
2018-02-20T07:24:46.709Z,54.60
2018-02-20T07:25:46.678Z,54.50
2018-02-20T07:26:46.750Z,53.20
2018-02-20T07:27:46.887Z,54.80
2018-02-20T07:28:46.657Z,54.50
2018-02-20T07:29:46.636Z,54.20
2018-02-20T07:30:46.563Z,53.40
2018-02-20T07:31:46.595Z,54.70
2018-02-20T07:32:46.519Z,53.30
2018-02-20T07:33:46.646Z,54.90
2018-02-20T07:34:46.476Z,54.00
2018-02-20T07:35:46.553Z,54.60
2018-02-20T07:36:46.434Z,53.80
2018-02-20T07:37:46.505Z,51.90
2018-02-20T07:38:46.386Z,54.40
2018-02-20T07:39:46.426Z,53.30
2018-02-20T07:40:46.346Z,52.70
2018-02-20T07:41:46.323Z,52.50
2018-02-20T07:42:46.296Z,52.90
2018-02-20T07:43:46.526Z,52.80
2018-02-20T07:44:46.252Z,54.30
2018-02-20T07:45:46.236Z,52.90
2018-02-20T07:46:46.211Z,52.10
2018-02-20T07:47:46.276Z,54.50
2018-02-20T07:48:46.161Z,52.70
2018-02-20T07:49:46.150Z,52.90
2018-02-20T07:50:46.120Z,51.40
2018-02-20T07:51:46.099Z,51.40
2018-02-20T07:52:46.076Z,51.90
2018-02-20T07:53:46.307Z,52.70
2018-02-20T07:54:46.030Z,50.90
2018-02-20T07:55:46.159Z,52.10
2018-02-20T07:56:45.986Z,51.30
2018-02-20T07:57:46.052Z,51.90
2018-02-20T07:58:46.194Z,52.00
2018-02-20T07:59:45.925Z,52.10
2018-02-20T08:00:45.901Z,51.30
2018-02-20T08:01:45.877Z,51.90
2018-02-20T08:02:45.853Z,51.10
2018-02-20T08:03:45.831Z,52.30
2018-02-20T08:04:45.815Z,51.30
2018-02-20T08:05:45.791Z,51.00
2018-02-20T08:06:45.767Z,52.40
2018-02-20T08:07:45.745Z,53.10
2018-02-20T08:08:45.726Z,52.50
2018-02-20T08:09:45.701Z,52.90
2018-02-20T08:10:45.679Z,51.10
2018-02-20T08:11:45.656Z,52.80
2018-02-20T08:12:45.635Z,52.00
2018-02-20T08:13:45.619Z,52.80
2018-02-20T08:14:45.593Z,50.70
2018-02-20T08:15:45.569Z,51.10
2018-02-20T08:16:45.546Z,52.20
2018-02-20T08:17:45.532Z,52.60
2018-02-20T08:18:45.508Z,52.40
2018-02-20T08:19:45.738Z,51.60
2018-02-20T08:20:45.460Z,50.90
2018-02-20T08:21:45.440Z,51.50
2018-02-20T08:22:45.419Z,50.90
2018-02-20T08:23:45.401Z,51.40
2018-02-20T08:24:45.626Z,50.60
2018-02-20T08:25:45.352Z,52.30
2018-02-20T08:26:45.331Z,52.10
2018-02-20T08:27:45.312Z,50.60
2018-02-20T08:28:45.285Z,51.70
2018-02-20T08:29:45.290Z,52.10
2018-02-20T08:30:45.243Z,52.90
2018-02-20T08:31:45.223Z,52.40
2018-02-20T08:32:45.209Z,51.70
2018-02-20T08:33:45.180Z,52.10
2018-02-20T08:34:45.158Z,52.60
2018-02-20T08:35:45.136Z,51.80
2018-02-20T08:36:45.122Z,52.80
2018-02-20T08:37:45.096Z,51.80
2018-02-20T08:38:45.071Z,51.80
2018-02-20T08:39:45.055Z,50.70
2018-02-20T08:40:45.033Z,51.00
2018-02-20T08:41:45.006Z,53.00
2018-02-20T08:42:44.985Z,52.60
2018-02-20T08:43:44.967Z,52.80
2018-02-20T08:44:45.190Z,51.60
2018-02-20T08:45:44.925Z,53.50
2018-02-20T08:46:44.944Z,51.90
2018-02-20T08:47:44.905Z,51.40
2018-02-20T08:48:44.864Z,52.10
2018-02-20T08:49:44.838Z,51.40
2018-02-20T08:50:44.816Z,51.90
2018-02-20T08:51:44.799Z,51.40
2018-02-20T08:52:44.776Z,51.30
2018-02-20T08:53:44.757Z,51.50
2018-02-20T08:54:44.738Z,51.70
2018-02-20T08:55:44.968Z,52.60
2018-02-20T08:56:44.694Z,53.30
2018-02-20T08:57:44.676Z,52.40
2018-02-20T08:58:44.659Z,53.00
2018-02-20T08:59:44.641Z,50.20
2018-02-20T09:00:44.618Z,51.10
2018-02-20T09:01:44.605Z,50.80
2018-02-20T09:02:44.578Z,51.20
2018-02-20T09:03:44.563Z,49.20
2018-02-20T09:04:44.538Z,51.20
2018-02-20T09:05:44.522Z,51.30
2018-02-20T09:06:44.500Z,51.40
2018-02-20T09:07:44.484Z,52.00
2018-02-20T09:08:44.484Z,51.40
2018-02-20T09:09:44.444Z,50.60
2018-02-20T09:10:44.428Z,52.20
2018-02-20T09:11:44.405Z,51.50
2018-02-20T09:12:44.385Z,50.50
2018-02-20T09:13:44.373Z,49.70
2018-02-20T09:14:44.348Z,49.20
2018-02-20T09:15:44.330Z,51.00
2018-02-20T09:16:44.316Z,51.40
2018-02-20T09:17:44.293Z,49.80
2018-02-20T09:18:44.311Z,50.30
2018-02-20T09:19:44.253Z,49.70
2018-02-20T09:20:44.238Z,51.10
2018-02-20T09:21:44.591Z,49.40
2018-02-20T09:22:44.199Z,49.60
2018-02-20T09:23:44.184Z,49.70
2018-02-20T09:24:44.166Z,49.00
2018-02-20T09:25:44.143Z,50.10
2018-02-20T09:26:44.128Z,51.00
2018-02-20T09:27:44.104Z,51.60
2018-02-20T09:28:44.138Z,51.80
2018-02-20T09:29:44.064Z,49.90
2018-02-20T09:30:44.049Z,50.40
2018-02-20T09:31:44.280Z,49.50
2018-02-20T09:32:44.004Z,49.40
2018-02-20T09:33:43.993Z,50.00
2018-02-20T09:34:43.969Z,50.80
2018-02-20T09:35:43.949Z,51.00
2018-02-20T09:36:44.178Z,51.40
2018-02-20T09:37:43.914Z,48.90
2018-02-20T09:38:43.893Z,49.90
2018-02-20T09:39:43.876Z,48.60
2018-02-20T09:40:43.855Z,50.10
2018-02-20T09:41:43.835Z,49.30
2018-02-20T09:42:43.821Z,49.60
2018-02-20T09:43:43.796Z,51.50
2018-02-20T09:44:43.777Z,49.40
2018-02-20T09:45:43.764Z,50.20
2018-02-20T09:46:43.743Z,49.20
2018-02-20T09:47:43.725Z,48.40
2018-02-20T09:48:43.700Z,49.70
2018-02-20T09:49:43.686Z,47.50
2018-02-20T09:50:43.663Z,48.40
2018-02-20T09:51:43.643Z,48.30
2018-02-20T09:52:43.625Z,48.60
2018-02-20T09:53:43.614Z,49.00
2018-02-20T09:54:43.586Z,48.60
2018-02-20T09:55:43.569Z,48.20
2018-02-20T09:56:43.550Z,48.20
2018-02-20T09:57:43.530Z,47.90
2018-02-20T09:58:43.515Z,47.70
2018-02-20T09:59:43.496Z,47.90
2018-02-20T10:00:43.479Z,48.70
2018-02-20T10:01:43.459Z,47.60
2018-02-20T10:02:43.446Z,48.50
2018-02-20T10:03:43.424Z,47.00
2018-02-20T10:04:43.415Z,48.00
2018-02-20T10:05:43.392Z,47.10
2018-02-20T10:06:43.379Z,49.10
2018-02-20T10:07:43.616Z,48.10
2018-02-20T10:08:43.352Z,46.50
2018-02-20T10:09:43.351Z,47.20
2018-02-20T10:10:43.328Z,44.90
2018-02-20T10:11:43.307Z,44.90
2018-02-20T10:12:43.546Z,45.50
2018-02-20T10:13:43.281Z,45.70
2018-02-20T10:14:43.268Z,45.50
2018-02-20T10:15:43.259Z,44.20
2018-02-20T10:16:43.247Z,43.90
2018-02-20T10:17:43.237Z,46.70
2018-02-20T10:18:43.229Z,46.70
2018-02-20T10:19:43.225Z,44.90
2018-02-20T10:20:43.208Z,44.40
2018-02-20T10:21:43.204Z,44.30
2018-02-20T10:22:43.202Z,45.50
2018-02-20T10:23:43.183Z,42.80
2018-02-20T10:24:43.174Z,43.70
2018-02-20T10:25:43.165Z,44.20
2018-02-20T10:26:43.166Z,43.30
2018-02-20T10:27:43.154Z,42.50
2018-02-20T10:28:43.188Z,43.60
2018-02-20T10:29:43.142Z,42.50
2018-02-20T10:30:43.135Z,42.30
2018-02-20T10:31:43.132Z,44.30
2018-02-20T10:32:43.425Z,42.40
2018-02-20T10:33:43.124Z,42.20
2018-02-20T10:34:43.127Z,43.30
2018-02-20T10:35:43.116Z,40.70
2018-02-20T10:36:43.111Z,41.90
2018-02-20T10:37:43.354Z,41.40
2018-02-20T10:38:43.104Z,39.80
2018-02-20T10:39:43.103Z,40.90
2018-02-20T10:40:43.103Z,39.90
2018-02-20T10:41:43.096Z,40.60
2018-02-20T10:42:43.099Z,37.40
2018-02-20T10:43:43.092Z,37.30
2018-02-20T10:44:43.090Z,40.10
2018-02-20T10:45:43.086Z,39.30
2018-02-20T10:46:43.082Z,39.60
2018-02-20T10:47:43.082Z,38.60
2018-02-20T10:48:43.082Z,39.50
2018-02-20T10:49:43.077Z,37.10
2018-02-20T10:50:43.081Z,36.10
2018-02-20T10:51:43.077Z,33.20
2018-02-20T10:52:43.075Z,32.60
2018-02-20T10:53:43.075Z,31.30
2018-02-20T10:54:43.075Z,32.10
2018-02-20T10:55:43.078Z,31.30
2018-02-20T10:56:43.075Z,31.10
2018-02-20T10:57:43.321Z,29.60
2018-02-20T10:58:43.075Z,30.70
2018-02-20T10:59:43.071Z,29.90
2018-02-20T11:00:43.077Z,30.40
2018-02-20T11:01:43.091Z,30.70
2018-02-20T11:02:43.323Z,32.20
2018-02-20T11:03:43.069Z,31.50
2018-02-20T11:04:43.069Z,32.30
2018-02-20T11:05:43.069Z,31.50
2018-02-20T11:06:43.071Z,31.00
2018-02-20T11:07:43.329Z,29.30
2018-02-20T11:08:43.070Z,30.40
2018-02-20T11:09:43.074Z,29.60
2018-02-20T11:10:43.080Z,29.70
2018-02-20T11:11:43.076Z,28.50
2018-02-20T11:12:43.239Z,30.00
2018-02-20T11:13:43.175Z,30.70
2018-02-20T11:14:43.075Z,28.90
2018-02-20T11:15:43.076Z,28.10
2018-02-20T11:16:44.389Z,27.50
2018-02-20T11:17:43.076Z,26.90
2018-02-20T11:18:43.085Z,27.40
2018-02-20T11:19:43.078Z,26.60
2018-02-20T11:20:43.078Z,26.50
2018-02-20T11:21:43.086Z,27.00
2018-02-20T11:22:43.084Z,26.50
2018-02-20T11:23:43.084Z,26.80
2018-02-20T11:24:43.085Z,26.60
2018-02-20T11:25:43.086Z,27.20
2018-02-20T11:26:43.091Z,27.40
2018-02-20T11:27:43.092Z,25.90
2018-02-20T11:28:43.096Z,26.60
2018-02-20T11:29:43.093Z,26.40
2018-02-20T11:30:43.089Z,24.70
2018-02-20T11:31:43.095Z,25.80
2018-02-20T11:32:43.346Z,25.20
2018-02-20T11:33:43.101Z,25.50
2018-02-20T11:34:43.100Z,23.60
2018-02-20T11:35:43.100Z,25.00
2018-02-20T11:36:43.100Z,23.80
2018-02-20T11:37:43.352Z,23.40
2018-02-20T11:38:43.110Z,23.60
2018-02-20T11:39:43.106Z,24.40
2018-02-20T11:40:43.109Z,25.20
2018-02-20T11:41:43.110Z,24.90
2018-02-20T11:42:43.116Z,25.50
2018-02-20T11:43:43.114Z,24.60
2018-02-20T11:44:43.117Z,24.90
2018-02-20T11:45:43.120Z,26.20
2018-02-20T11:46:43.118Z,24.00
2018-02-20T11:47:43.117Z,24.70
2018-02-20T11:48:43.118Z,23.80
2018-02-20T11:49:43.123Z,24.40
2018-02-20T11:50:43.124Z,24.50
2018-02-20T11:51:43.124Z,25.00
2018-02-20T11:52:43.375Z,23.80
2018-02-20T11:53:43.125Z,25.20
2018-02-20T11:54:43.127Z,23.70
2018-02-20T11:55:43.129Z,24.70
2018-02-20T11:56:43.130Z,24.20
2018-02-20T11:57:43.130Z,23.70
2018-02-20T11:58:43.135Z,24.10
2018-02-20T11:59:43.136Z,24.10
2018-02-20T12:00:43.136Z,24.30
2018-02-20T12:01:43.141Z,25.00
2018-02-20T12:02:43.387Z,23.50
2018-02-20T12:03:43.147Z,24.00
2018-02-20T12:04:43.144Z,23.90
2018-02-20T12:05:43.146Z,23.80
2018-02-20T12:06:43.145Z,24.60
2018-02-20T12:07:43.148Z,25.40
2018-02-20T12:08:43.147Z,25.20
2018-02-20T12:09:43.149Z,25.50
2018-02-20T12:10:43.149Z,25.70
2018-02-20T12:11:43.152Z,25.10
2018-02-20T12:12:43.157Z,25.50
2018-02-20T12:13:43.159Z,24.40
2018-02-20T12:14:43.154Z,24.20
2018-02-20T12:15:43.155Z,24.70
2018-02-20T12:16:43.160Z,24.20
2018-02-20T12:17:43.160Z,22.40
2018-02-20T12:18:43.165Z,24.10
2018-02-20T12:19:43.162Z,23.40
2018-02-20T12:20:43.164Z,24.50
2018-02-20T12:21:43.166Z,24.00
2018-02-20T12:22:43.174Z,24.80
2018-02-20T12:23:43.181Z,24.70
2018-02-20T12:24:43.175Z,25.00
2018-02-20T12:25:43.175Z,24.70
2018-02-20T12:26:43.191Z,24.70
2018-02-20T12:27:43.174Z,24.80
2018-02-20T12:28:43.177Z,25.40
2018-02-20T12:29:43.176Z,24.80
2018-02-20T12:30:43.187Z,24.80
2018-02-20T12:31:43.179Z,25.00
2018-02-20T12:32:43.428Z,23.00
2018-02-20T12:33:43.184Z,24.80
2018-02-20T12:34:43.185Z,24.30
2018-02-20T12:35:43.188Z,24.00
2018-02-20T12:36:43.185Z,23.70
2018-02-20T12:37:43.186Z,22.60
2018-02-20T12:38:43.185Z,23.80
2018-02-20T12:39:43.193Z,24.00
2018-02-20T12:40:43.188Z,23.00
2018-02-20T12:41:43.194Z,23.30
2018-02-20T12:42:43.443Z,24.40
2018-02-20T12:43:43.196Z,23.60
2018-02-20T12:44:43.196Z,24.10
2018-02-20T12:45:43.193Z,23.60
2018-02-20T12:46:43.197Z,24.20
2018-02-20T12:47:43.193Z,23.50
2018-02-20T12:48:43.196Z,23.90
2018-02-20T12:49:43.198Z,24.30
2018-02-20T12:50:43.204Z,23.20
2018-02-20T12:51:43.195Z,23.40
2018-02-20T12:52:43.445Z,22.50